Time;durP1;ratioP1;P1;durP2;ratioP2;P2;SDS_P1;SDS_P2;PMS_P1;PMS_P2;Temp;Humidity;BMP_temperature;BMP_pressure;BME280_temperature;BME280_humidity;BME280_pressure;Samples;Min_cycle;Max_cycle;Signal;HPM_P1;HPM_P2
2022/06/07 00:02:29;;;;;;;9.77;5.60;;;;;;;;;;6274813;22;20091;-78
2022/06/07 00:04:54;;;;;;;16.85;5.30;;;;;;;;;;6276102;22;20000;-77
2022/06/07 00:07:20;;;;;;;9.38;4.80;;;;;;;;;;6274720;22;20003;-80
2022/06/07 00:09:46;;;;;;;6.80;4.93;;;;;;;;;;6274298;22;20107;-77
2022/06/07 00:12:12;;;;;;;10.93;5.32;;;;;;;;;;6276060;22;20011;-77
2022/06/07 00:14:38;;;;;;;10.88;5.28;;;;;;;;;;6276160;22;20027;-78
2022/06/07 00:17:05;;;;;;;5.22;4.75;;;;;;;;;;6274546;22;20008;-79
2022/06/07 00:19:30;;;;;;;7.97;6.72;;;;;;;;;;6276166;22;20000;-78
2022/06/07 00:21:56;;;;;;;9.48;5.93;;;;;;;;;;6249860;22;20000;-78
2022/06/07 00:24:21;;;;;;;7.20;4.97;;;;;;;;;;6276761;22;20031;-79
2022/06/07 00:26:46;;;;;;;6.78;4.97;;;;;;;;;;6274608;22;20003;-78
2022/06/07 00:29:12;;;;;;;7.63;5.03;;;;;;;;;;6274356;22;20078;-77
2022/06/07 00:31:39;;;;;;;6.38;5.30;;;;;;;;;;6274643;22;19999;-78
2022/06/07 00:34:05;;;;;;;5.40;4.90;;;;;;;;;;6274132;22;20089;-78
2022/06/07 00:36:31;;;;;;;5.88;5.28;;;;;;;;;;6274080;22;20043;-78
2022/06/07 00:38:57;;;;;;;6.15;5.25;;;;;;;;;;6249006;22;20038;-78
2022/06/07 00:41:22;;;;;;;6.93;5.53;;;;;;;;;;6275828;22;19992;-78
2022/06/07 00:44:20;;;;;;;7.25;5.45;;;;;;;;;;6274818;22;20008;-79
2022/06/07 00:46:46;;;;;;;6.72;5.18;;;;;;;;;;6233349;22;20000;-78
2022/06/07 00:49:12;;;;;;;8.40;5.43;;;;;;;;;;6275788;22;20080;-79
2022/06/07 00:51:39;;;;;;;7.75;6.05;;;;;;;;;;6248954;22;20003;-79
2022/06/07 00:54:05;;;;;;;6.18;5.03;;;;;;;;;;6274269;22;20389;-78
2022/06/07 00:56:30;;;;;;;6.40;5.68;;;;;;;;;;6274480;22;20027;-78
2022/06/07 00:58:55;;;;;;;7.50;5.72;;;;;;;;;;6275628;22;20071;-79
2022/06/07 01:01:21;;;;;;;8.23;5.45;;;;;;;;;;6276043;22;20329;-78
2022/06/07 01:03:46;;;;;;;8.90;5.47;;;;;;;;;;6223684;22;20343;-77
2022/06/07 01:11:40;;;;;;;6.68;5.22;;;;;;;;;;6274379;22;20018;-78
2022/06/07 01:14:05;;;;;;;8.18;5.68;;;;;;;;;;6223440;22;20003;-78
2022/06/07 01:16:31;;;;;;;7.93;5.43;;;;;;;;;;6273348;22;20078;-78
2022/06/07 01:18:56;;;;;;;7.20;5.32;;;;;;;;;;6275769;22;20040;-78
2022/06/07 01:21:32;;;;;;;9.68;5.57;;;;;;;;;;6275441;22;20059;-77
2022/06/07 01:23:57;;;;;;;11.38;5.55;;;;;;;;;;6275491;22;20000;-77
2022/06/07 01:26:23;;;;;;;9.00;5.60;;;;;;;;;;6274066;22;19996;-78
2022/06/07 01:28:49;;;;;;;6.45;5.75;;;;;;;;;;6275339;22;20004;-78
2022/06/07 01:31:14;;;;;;;6.05;5.45;;;;;;;;;;6223183;22;20392;-79
2022/06/07 01:33:40;;;;;;;11.45;5.50;;;;;;;;;;6275385;22;20008;-79
2022/06/07 01:36:08;;;;;;;10.20;5.70;;;;;;;;;;6273596;22;20004;-79
2022/06/07 01:38:35;;;;;;;9.60;5.57;;;;;;;;;;6274084;22;20423;-78
2022/06/07 01:43:45;;;;;;;6.40;5.50;;;;;;;;;;6252490;22;20010;-78
2022/06/07 01:46:10;;;;;;;9.98;5.85;;;;;;;;;;6248291;22;20050;-77
2022/06/07 01:48:36;;;;;;;8.95;5.88;;;;;;;;;;6222954;22;20073;-80
2022/06/07 01:51:02;;;;;;;7.75;5.32;;;;;;;;;;6248169;22;20361;-80
2022/06/07 01:53:28;;;;;;;7.18;5.10;;;;;;;;;;6273968;22;20004;-80
2022/06/07 01:56:00;;;;;;;8.23;5.82;;;;;;;;;;6275075;22;20086;-80
2022/06/07 01:58:26;;;;;;;6.28;5.57;;;;;;;;;;6248634;22;20035;-79
2022/06/07 02:00:53;;;;;;;7.28;6.15;;;;;;;;;;6248029;22;20003;-79
2022/06/07 02:03:18;;;;;;;6.78;5.90;;;;;;;;;;6222957;22;20006;-79
2022/06/07 02:05:54;;;;;;;11.27;6.30;;;;;;;;;;6222636;22;20004;-78
2022/06/07 02:08:19;;;;;;;10.38;6.43;;;;;;;;;;6273752;22;20036;-79
2022/06/07 02:10:45;;;;;;;10.00;6.53;;;;;;;;;;6247921;22;20007;-80
2022/06/07 02:13:10;;;;;;;9.32;6.35;;;;;;;;;;6247779;22;19999;-80
2022/06/07 02:15:36;;;;;;;6.75;5.60;;;;;;;;;;6273137;22;20393;-80
2022/06/07 02:18:01;;;;;;;9.38;6.05;;;;;;;;;;6273860;22;20385;-80
2022/06/07 02:20:26;;;;;;;7.65;6.32;;;;;;;;;;6273975;22;20389;-79
2022/06/07 02:22:52;;;;;;;8.52;6.30;;;;;;;;;;6297706;22;20007;-81
2022/06/07 02:25:17;;;;;;;11.23;6.72;;;;;;;;;;6253240;22;20079;-79
2022/06/07 02:27:43;;;;;;;9.15;6.88;;;;;;;;;;6247981;22;19996;-79
2022/06/07 02:30:09;;;;;;;7.03;6.15;;;;;;;;;;6274831;22;20003;-80
2022/06/07 02:32:34;;;;;;;8.38;6.70;;;;;;;;;;6247906;22;20034;-80
2022/06/07 02:34:59;;;;;;;8.73;6.68;;;;;;;;;;6248090;22;20008;-80
2022/06/07 02:37:25;;;;;;;14.60;6.90;;;;;;;;;;6248232;22;20006;-80
2022/06/07 02:39:51;;;;;;;7.45;6.60;;;;;;;;;;6273338;22;20530;-79
2022/06/07 02:42:18;;;;;;;12.05;6.80;;;;;;;;;;6247961;22;20065;-79
2022/06/07 02:44:43;;;;;;;7.30;6.57;;;;;;;;;;6247919;22;20343;-80
2022/06/07 02:47:09;;;;;;;10.18;7.22;;;;;;;;;;6247793;22;19999;-78
2022/06/07 02:49:34;;;;;;;9.20;7.30;;;;;;;;;;6274983;22;20006;-80
2022/06/07 02:51:59;;;;;;;9.68;7.40;;;;;;;;;;6274617;22;20004;-80
2022/06/07 02:54:25;;;;;;;9.13;7.30;;;;;;;;;;6273770;22;20000;-80
2022/06/07 02:56:51;;;;;;;12.07;8.10;;;;;;;;;;6247810;22;20117;-79
2022/06/07 02:59:17;;;;;;;12.57;7.93;;;;;;;;;;6274405;22;20000;-79
2022/06/07 03:01:42;;;;;;;17.77;7.72;;;;;;;;;;6247852;22;20039;-79
2022/06/07 03:04:07;;;;;;;11.88;7.43;;;;;;;;;;6273206;22;20007;-79
2022/06/07 03:06:33;;;;;;;10.93;7.55;;;;;;;;;;6274634;22;20063;-79
2022/06/07 03:08:58;;;;;;;19.77;10.35;;;;;;;;;;6274638;22;20343;-78
2022/06/07 03:11:24;;;;;;;11.10;8.00;;;;;;;;;;6222454;22;20000;-78
2022/06/07 03:13:49;;;;;;;9.45;7.50;;;;;;;;;;6274752;22;20028;-79
2022/06/07 03:16:15;;;;;;;10.70;7.97;;;;;;;;;;6274597;22;20090;-80
2022/06/07 03:18:41;;;;;;;9.57;7.03;;;;;;;;;;6274829;22;20004;-78
2022/06/07 03:21:06;;;;;;;12.48;7.82;;;;;;;;;;6274631;22;20454;-78
2022/06/07 03:23:31;;;;;;;8.85;7.43;;;;;;;;;;6247497;22;20012;-77
2022/06/07 03:26:05;;;;;;;9.55;7.07;;;;;;;;;;6274347;22;20004;-78
2022/06/07 03:28:30;;;;;;;8.95;7.45;;;;;;;;;;6274681;22;20000;-79
2022/06/07 03:31:03;;;;;;;14.05;6.82;;;;;;;;;;6247676;22;20095;-78
2022/06/07 03:33:28;;;;;;;11.38;7.45;;;;;;;;;;6274740;22;20000;-79
2022/06/07 03:35:54;;;;;;;12.60;7.18;;;;;;;;;;6197453;22;20019;-80
2022/06/07 03:38:19;;;;;;;10.70;6.68;;;;;;;;;;6248010;22;20007;-80
2022/06/07 03:40:45;;;;;;;10.88;7.43;;;;;;;;;;6276058;22;19996;-79
2022/06/07 03:43:11;;;;;;;12.43;7.65;;;;;;;;;;6249400;22;20000;-80
2022/06/07 03:45:36;;;;;;;9.93;6.68;;;;;;;;;;6199420;22;20003;-79
2022/06/07 03:48:02;;;;;;;10.43;7.07;;;;;;;;;;6249464;22;19991;-78
2022/06/07 03:50:27;;;;;;;16.70;7.78;;;;;;;;;;6249354;22;20007;-78
2022/06/07 03:52:53;;;;;;;11.68;6.82;;;;;;;;;;6277149;22;20002;-79
2022/06/07 03:55:18;;;;;;;12.80;7.30;;;;;;;;;;6249178;22;20426;-80
2022/06/07 03:57:44;;;;;;;8.85;6.65;;;;;;;;;;6224086;22;20359;-79
2022/06/07 04:00:10;;;;;;;13.05;7.20;;;;;;;;;;6249187;22;20007;-79
2022/06/07 04:02:35;;;;;;;11.05;6.82;;;;;;;;;;6224236;22;19999;-78
2022/06/07 04:05:01;;;;;;;8.50;6.60;;;;;;;;;;6223865;22;20426;-78
2022/06/07 04:10:10;;;;;;;9.55;7.00;;;;;;;;;;6275772;22;20068;-79
2022/06/07 04:12:36;;;;;;;11.27;6.55;;;;;;;;;;6224027;22;20038;-79
2022/06/07 04:15:01;;;;;;;8.23;6.32;;;;;;;;;;6223821;22;20003;-79
2022/06/07 04:17:27;;;;;;;10.80;7.32;;;;;;;;;;6198644;22;20010;-79
2022/06/07 04:19:53;;;;;;;11.57;7.03;;;;;;;;;;6276151;22;20004;-80
2022/06/07 04:22:18;;;;;;;11.40;6.50;;;;;;;;;;6249141;22;20335;-80
2022/06/07 04:24:44;;;;;;;10.27;6.65;;;;;;;;;;6223856;22;20010;-79
2022/06/07 04:27:09;;;;;;;11.75;6.97;;;;;;;;;;6276483;22;20015;-77
2022/06/07 04:29:35;;;;;;;9.88;6.95;;;;;;;;;;6274316;22;20500;-77
2022/06/07 04:32:00;;;;;;;13.15;6.97;;;;;;;;;;6223993;22;20421;-77
2022/06/07 04:34:26;;;;;;;7.75;6.78;;;;;;;;;;6249228;22;20007;-78
2022/06/07 04:36:53;;;;;;;10.27;6.93;;;;;;;;;;6276239;22;20008;-78
2022/06/07 04:39:18;;;;;;;8.90;6.72;;;;;;;;;;6249043;22;20061;-77
2022/06/07 04:41:44;;;;;;;13.77;6.75;;;;;;;;;;6248008;22;20004;-77
2022/06/07 04:44:09;;;;;;;7.78;6.95;;;;;;;;;;6246579;22;20034;-79
2022/06/07 04:46:58;;;;;;;12.10;8.73;;;;;;;;;;6247541;22;20010;-78
2022/06/07 04:49:26;;;;;;;18.30;8.48;;;;;;;;;;6272932;22;20004;-80
2022/06/07 04:52:01;;;;;;;10.15;8.10;;;;;;;;;;6245503;22;20053;-78
2022/06/07 04:54:26;;;;;;;12.38;7.63;;;;;;;;;;6283260;22;20003;-77
2022/06/07 04:56:53;;;;;;;10.90;7.30;;;;;;;;;;6276412;22;20007;-76
2022/06/07 04:59:23;;;;;;;15.40;8.30;;;;;;;;;;6247853;22;20022;-76
2022/06/07 05:01:50;;;;;;;11.13;6.82;;;;;;;;;;6273500;22;20035;-76
2022/06/07 05:04:20;;;;;;;8.80;6.70;;;;;;;;;;6274819;22;20034;-77
2022/06/07 05:06:47;;;;;;;13.25;7.60;;;;;;;;;;6247609;22;20035;-77
2022/06/07 05:09:17;;;;;;;18.77;7.18;;;;;;;;;;6264091;22;20012;-77
2022/06/07 05:11:46;;;;;;;8.32;6.55;;;;;;;;;;6248445;22;20003;-78
2022/06/07 05:14:12;;;;;;;8.57;6.40;;;;;;;;;;6274769;22;20003;-78
2022/06/07 05:16:38;;;;;;;10.43;6.40;;;;;;;;;;6274360;22;20342;-77
2022/06/07 05:19:07;;;;;;;11.70;6.80;;;;;;;;;;6273790;22;20004;-76
2022/06/07 05:21:33;;;;;;;11.30;6.80;;;;;;;;;;6274134;22;20003;-78
2022/06/07 05:23:58;;;;;;;8.75;7.00;;;;;;;;;;6250148;22;20054;-78
2022/06/07 05:26:38;;;;;;;12.20;7.40;;;;;;;;;;6256511;22;20068;-77
2022/06/07 05:29:06;;;;;;;10.15;6.70;;;;;;;;;;6257901;22;19995;-78
2022/06/07 05:31:32;;;;;;;9.15;6.28;;;;;;;;;;6284892;22;19996;-78
2022/06/07 05:33:57;;;;;;;7.13;5.78;;;;;;;;;;6279672;22;20000;-78
2022/06/07 05:36:23;;;;;;;9.85;6.07;;;;;;;;;;6277270;22;20423;-78
2022/06/07 05:38:52;;;;;;;11.82;6.45;;;;;;;;;;6279659;22;20651;-76
2022/06/07 05:41:21;;;;;;;11.93;6.25;;;;;;;;;;6279900;22;20022;-78
2022/06/07 05:43:48;;;;;;;14.63;6.47;;;;;;;;;;6279119;22;20000;-77
2022/06/07 05:46:13;;;;;;;8.40;6.18;;;;;;;;;;6277130;22;20052;-78
2022/06/07 05:48:43;;;;;;;15.75;5.88;;;;;;;;;;6273751;22;20190;-78
2022/06/07 05:51:08;;;;;;;13.30;6.87;;;;;;;;;;6274786;22;20034;-76
2022/06/07 05:53:53;;;;;;;8.05;5.60;;;;;;;;;;6276808;22;20003;-78
2022/06/07 05:56:19;;;;;;;6.35;5.13;;;;;;;;;;6248035;22;20004;-76
2022/06/07 05:58:50;;;;;;;8.02;5.07;;;;;;;;;;6273278;22;20003;-78
2022/06/07 06:01:16;;;;;;;7.10;5.25;;;;;;;;;;6273508;22;20095;-78
2022/06/07 06:03:49;;;;;;;7.30;5.65;;;;;;;;;;6274648;22;20008;-77
2022/06/07 06:06:14;;;;;;;10.82;6.13;;;;;;;;;;6270722;22;20061;-78
2022/06/07 06:11:28;;;;;;;10.63;6.90;;;;;;;;;;6275286;22;20400;-78
2022/06/07 06:13:53;;;;;;;13.38;5.70;;;;;;;;;;6271647;22;20872;-77
2022/06/07 06:16:28;;;;;;;10.05;6.28;;;;;;;;;;6270097;22;20007;-78
2022/06/07 06:18:56;;;;;;;17.30;9.43;;;;;;;;;;6270488;22;20004;-78
2022/06/07 06:21:24;;;;;;;16.30;9.98;;;;;;;;;;6268744;22;20460;-78
2022/06/07 06:23:50;;;;;;;8.35;6.85;;;;;;;;;;6243534;22;20004;-78
2022/06/07 06:26:18;;;;;;;18.25;13.18;;;;;;;;;;6245205;22;20087;-79
2022/06/07 06:28:44;;;;;;;14.52;9.45;;;;;;;;;;6245888;22;20090;-78
2022/06/07 06:31:11;;;;;;;12.65;7.40;;;;;;;;;;6273050;22;20431;-78
2022/06/07 06:33:38;;;;;;;15.38;9.10;;;;;;;;;;6274241;22;20003;-81
2022/06/07 06:36:04;;;;;;;13.48;7.18;;;;;;;;;;6246890;22;20003;-78
2022/06/07 06:38:31;;;;;;;7.40;5.70;;;;;;;;;;6247279;22;20003;-79
2022/06/07 06:41:26;;;;;;;13.18;5.40;;;;;;;;;;6222165;22;20015;-81
2022/06/07 06:43:52;;;;;;;5.15;4.65;;;;;;;;;;6273243;22;20008;-77
2022/06/07 06:46:23;;;;;;;5.95;4.68;;;;;;;;;;6274769;22;20317;-80
2022/06/07 06:48:49;;;;;;;8.85;5.13;;;;;;;;;;6247066;22;20004;-78
2022/06/07 06:51:18;;;;;;;8.70;4.13;;;;;;;;;;6273529;22;20011;-79
2022/06/07 06:53:51;;;;;;;5.78;4.30;;;;;;;;;;6267087;22;20010;-78
2022/06/07 06:56:20;;;;;;;7.95;4.55;;;;;;;;;;6267597;22;20077;-79
2022/06/07 06:58:46;;;;;;;9.93;4.63;;;;;;;;;;6269920;22;20014;-77
2022/06/07 07:01:27;;;;;;;7.38;4.50;;;;;;;;;;6273375;22;20058;-81
2022/06/07 07:03:53;;;;;;;4.65;3.95;;;;;;;;;;6245035;22;20007;-79
2022/06/07 07:06:19;;;;;;;9.80;4.80;;;;;;;;;;6273576;22;20000;-78
2022/06/07 07:08:45;;;;;;;20.90;5.00;;;;;;;;;;6273107;22;20016;-79
2022/06/07 07:11:22;;;;;;;8.48;4.28;;;;;;;;;;6269760;22;20488;-79
2022/06/07 07:13:49;;;;;;;41.53;5.22;;;;;;;;;;6257817;22;20008;-88
2022/06/07 07:16:32;;;;;;;6.85;3.95;;;;;;;;;;6265063;22;20015;-85
2022/06/07 07:18:58;;;;;;;9.23;4.20;;;;;;;;;;6260931;22;20419;-83
2022/06/07 07:21:29;;;;;;;13.80;4.80;;;;;;;;;;6286853;22;20003;-81
2022/06/07 07:23:55;;;;;;;3.83;3.53;;;;;;;;;;6255316;22;20065;-79
2022/06/07 07:26:24;;;;;;;5.60;3.70;;;;;;;;;;6225550;22;20004;-78
2022/06/07 07:28:49;;;;;;;5.93;3.90;;;;;;;;;;6274758;22;20026;-78
2022/06/07 07:31:17;;;;;;;5.40;3.38;;;;;;;;;;6250220;22;20368;-77
2022/06/07 07:33:42;;;;;;;7.80;3.45;;;;;;;;;;6225099;22;20427;-78
2022/06/07 07:36:11;;;;;;;5.35;3.33;;;;;;;;;;6276612;22;20053;-77
2022/06/07 07:38:37;;;;;;;;;;;;;;;;;;6272146;22;20014;-78
2022/06/07 07:41:03;;;;;;;5.30;3.40;;;;;;;;;;6271320;22;19907;-79
2022/06/07 07:43:28;;;;;;;4.18;3.70;;;;;;;;;;6239686;22;20035;-79
2022/06/07 07:45:54;;;;;;;7.78;3.20;;;;;;;;;;6267721;22;20007;-79
2022/06/07 07:48:21;;;;;;;4.90;3.20;;;;;;;;;;6217953;22;20003;-78
2022/06/07 07:50:46;;;;;;;4.88;2.97;;;;;;;;;;6241506;22;20007;-79
2022/06/07 07:53:12;;;;;;;6.13;3.00;;;;;;;;;;6270110;22;20022;-79
2022/06/07 07:56:01;;;;;;;5.10;2.95;;;;;;;;;;6221914;22;20018;-79
2022/06/07 07:58:27;;;;;;;7.35;3.08;;;;;;;;;;6253669;22;20426;-77
2022/06/07 08:00:52;;;;;;;4.50;2.70;;;;;;;;;;6272059;22;20007;-78
2022/06/07 08:03:18;;;;;;;3.72;3.30;;;;;;;;;;6244622;22;20080;-79
2022/06/07 08:05:44;;;;;;;9.98;3.50;;;;;;;;;;6249258;22;20095;-78
2022/06/07 08:08:30;;;;;;;5.78;3.10;;;;;;;;;;6273635;22;20074;-78
2022/06/07 08:10:56;;;;;;;3.65;3.35;;;;;;;;;;6274041;22;20003;-78
2022/06/07 08:13:27;;;;;;;8.45;3.38;;;;;;;;;;6248478;22;20088;-78
2022/06/07 08:16:09;;;;;;;4.88;3.20;;;;;;;;;;6273305;22;20059;-80
2022/06/07 08:18:35;;;;;;;4.85;3.30;;;;;;;;;;6277989;22;20003;-80
2022/06/07 08:21:05;;;;;;;5.20;3.10;;;;;;;;;;6274622;22;20091;-79
2022/06/07 08:23:31;;;;;;;5.57;3.00;;;;;;;;;;6275178;22;19999;-81
2022/06/07 08:25:57;;;;;;;5.30;2.70;;;;;;;;;;6221709;22;20012;-79
2022/06/07 08:28:22;;;;;;;4.55;2.67;;;;;;;;;;6275984;22;20004;-78
2022/06/07 08:30:51;;;;;;;5.20;2.63;;;;;;;;;;6248309;22;19999;-78
2022/06/07 08:38:50;;;;;;;2.70;2.50;;;;;;;;;;6254092;22;20011;-79
2022/06/07 08:41:59;;;;;;;2.58;2.38;;;;;;;;;;6276443;22;20343;-79
2022/06/07 08:44:39;;;;;;;4.05;2.40;;;;;;;;;;6207500;22;20011;-76
2022/06/07 08:47:19;;;;;;;2.83;2.50;;;;;;;;;;6272729;22;20008;-75
2022/06/07 08:49:46;;;;;;;3.58;2.13;;;;;;;;;;6270048;22;20228;-78
2022/06/07 08:52:28;;;;;;;2.50;2.30;;;;;;;;;;6268471;22;20004;-79
2022/06/07 08:54:55;;;;;;;3.50;2.50;;;;;;;;;;6271452;22;20079;-76
2022/06/07 08:57:26;;;;;;;5.80;2.40;;;;;;;;;;6246773;22;20021;-79
2022/06/07 08:59:54;;;;;;;2.50;2.30;;;;;;;;;;6273878;22;20003;-78
2022/06/07 09:02:30;;;;;;;2.72;2.28;;;;;;;;;;6248713;22;20004;-77
2022/06/07 09:04:56;;;;;;;2.70;2.50;;;;;;;;;;6277144;22;20002;-77
2022/06/07 09:07:22;;;;;;;4.00;1.98;;;;;;;;;;6250040;22;20003;-79
2022/06/07 09:12:37;;;;;;;3.22;2.10;;;;;;;;;;6273768;22;20030;-79
2022/06/07 09:15:11;;;;;;;4.15;2.33;;;;;;;;;;6276178;22;20027;-79
2022/06/07 09:17:47;;;;;;;2.47;2.28;;;;;;;;;;6255487;22;20362;-78
2022/06/07 09:20:24;;;;;;;4.45;2.45;;;;;;;;;;6276587;22;20010;-80
2022/06/07 09:22:57;;;;;;;4.78;2.10;;;;;;;;;;6249370;22;20000;-81
2022/06/07 09:25:48;;;;;;;3.70;2.40;;;;;;;;;;6276103;22;20382;-77
2022/06/07 09:28:41;;;;;;;3.80;2.25;;;;;;;;;;6280622;22;20315;-80
2022/06/07 09:31:13;;;;;;;2.28;2.17;;;;;;;;;;6246657;22;20043;-82
2022/06/07 09:33:56;;;;;;;9.95;2.20;;;;;;;;;;6275565;22;20006;-80
2022/06/07 09:36:43;;;;;;;2.95;2.13;;;;;;;;;;6276095;22;20006;-79
2022/06/07 09:39:16;;;;;;;4.70;2.30;;;;;;;;;;6274962;22;20014;-78
2022/06/07 09:41:54;;;;;;;2.55;1.95;;;;;;;;;;6222628;22;20006;-79
2022/06/07 09:44:32;;;;;;;3.83;1.63;;;;;;;;;;6246450;22;20019;-78
2022/06/07 09:47:03;;;;;;;2.35;1.95;;;;;;;;;;6269793;22;20004;-77
2022/06/07 09:49:48;;;;;;;1.80;1.70;;;;;;;;;;6271846;22;20030;-78
2022/06/07 09:52:29;;;;;;;2.13;1.90;;;;;;;;;;6248960;22;19999;-80
2022/06/07 09:54:58;;;;;;;3.40;1.90;;;;;;;;;;6275390;22;20007;-78
2022/06/07 09:57:30;;;;;;;6.35;2.28;;;;;;;;;;6245406;22;20086;-79
2022/06/07 10:00:01;;;;;;;4.53;2.00;;;;;;;;;;6273496;22;20007;-78
2022/06/07 10:02:27;;;;;;;2.00;1.80;;;;;;;;;;6272682;22;20110;-78
2022/06/07 10:04:58;;;;;;;4.72;2.10;;;;;;;;;;6274552;22;20006;-78
2022/06/07 10:07:35;;;;;;;2.85;1.95;;;;;;;;;;6273808;22;20011;-77
2022/06/07 10:10:08;;;;;;;5.28;1.92;;;;;;;;;;6272832;22;20474;-79
2022/06/07 10:12:55;;;;;;;2.00;1.90;;;;;;;;;;6272603;22;20008;-77
2022/06/07 10:15:29;;;;;;;2.47;1.77;;;;;;;;;;6275706;22;20006;-78
2022/06/07 10:18:00;;;;;;;3.75;2.10;;;;;;;;;;6248049;22;20011;-78
2022/06/07 10:21:02;;;;;;;5.35;2.10;;;;;;;;;;6273127;22;20108;-78
2022/06/07 10:23:43;;;;;;;2.25;2.10;;;;;;;;;;6272953;22;20015;-76
2022/06/07 10:26:30;;;;;;;2.15;1.90;;;;;;;;;;6272413;22;20030;-78
2022/06/07 10:29:08;;;;;;;3.05;2.08;;;;;;;;;;6273381;22;20008;-76
2022/06/07 10:31:45;;;;;;;2.50;2.25;;;;;;;;;;6275527;22;19999;-77
2022/06/07 10:34:32;;;;;;;5.75;2.30;;;;;;;;;;6275380;22;20100;-78
2022/06/07 10:37:38;;;;;;;5.18;2.00;;;;;;;;;;6274497;22;20072;-78
2022/06/07 10:40:13;;;;;;;8.73;2.63;;;;;;;;;;6188351;22;20439;-78
2022/06/07 10:42:45;;;;;;;7.05;2.60;;;;;;;;;;6268434;22;20004;-77
2022/06/07 10:45:19;;;;;;;5.97;2.80;;;;;;;;;;6266939;22;20100;-78
2022/06/07 10:47:59;;;;;;;5.68;2.40;;;;;;;;;;6242418;22;20008;-75
2022/06/07 10:50:31;;;;;;;6.53;2.45;;;;;;;;;;6270571;22;20226;-77
2022/06/07 10:53:14;;;;;;;3.33;2.40;;;;;;;;;;6269724;22;20008;-76
2022/06/07 10:55:50;;;;;;;2.55;2.15;;;;;;;;;;6222025;22;20351;-77
2022/06/07 10:58:38;;;;;;;10.52;2.60;;;;;;;;;;6273331;22;20271;-83
2022/06/07 11:01:15;;;;;;;5.05;2.50;;;;;;;;;;6249418;22;20309;-80
2022/06/07 11:04:08;;;;;;;2.63;2.20;;;;;;;;;;6247384;22;20011;-81
2022/06/07 11:09:43;;;;;;;6.15;5.40;;;;;;;;;;6276067;22;20339;-82
2022/06/07 11:12:19;;;;;;;5.43;2.90;;;;;;;;;;6201836;22;20437;-83
2022/06/07 11:15:25;;;;;;;6.18;4.95;;;;;;;;;;6226138;22;20008;-81
2022/06/07 11:18:07;;;;;;;10.10;5.00;;;;;;;;;;6225550;22;20004;-81
2022/06/07 11:20:34;;;;;;;5.00;2.63;;;;;;;;;;6228860;22;20011;-82
2022/06/07 11:23:10;;;;;;;6.65;4.22;;;;;;;;;;6205382;22;20004;-81
2022/06/07 11:25:57;;;;;;;5.40;4.68;;;;;;;;;;6229008;22;20008;-81
2022/06/07 11:28:25;;;;;;;3.33;2.90;;;;;;;;;;6229840;22;20004;-81
2022/06/07 11:30:53;;;;;;;5.45;4.80;;;;;;;;;;6252343;22;20014;-83
2022/06/07 11:33:43;;;;;;;3.65;3.33;;;;;;;;;;6226654;22;20006;-80
2022/06/07 11:36:13;;;;;;;3.67;2.97;;;;;;;;;;6278657;22;20007;-79
2022/06/07 11:38:56;;;;;;;10.35;4.13;;;;;;;;;;6279679;22;20407;-78
2022/06/07 11:41:36;;;;;;;5.13;2.90;;;;;;;;;;6279306;22;20090;-79
2022/06/07 11:44:03;;;;;;;5.57;4.18;;;;;;;;;;6281363;22;20000;-80
2022/06/07 11:46:35;;;;;;;11.38;6.22;;;;;;;;;;6253530;22;20375;-81
2022/06/07 11:49:57;;;;;;;5.75;3.78;;;;;;;;;;6252323;22;20087;-80
2022/06/07 11:52:33;;;;;;;8.40;3.40;;;;;;;;;;6099375;23;20505;-80
2022/06/07 11:55:17;;;;;;;5.03;3.83;;;;;;;;;;6198554;22;20003;-82
2022/06/07 11:58:03;;;;;;;4.25;3.35;;;;;;;;;;6201976;22;20091;-82
2022/06/07 12:00:29;;;;;;;5.80;3.70;;;;;;;;;;6224857;22;20014;-81
2022/06/07 12:02:57;;;;;;;4.85;3.80;;;;;;;;;;6276419;22;20004;-79
2022/06/07 12:05:33;;;;;;;9.30;7.72;;;;;;;;;;6276518;22;20003;-80
2022/06/07 12:08:32;;;;;;;8.70;5.18;;;;;;;;;;6251515;22;20423;-81
2022/06/07 12:11:20;;;;;;;6.68;5.57;;;;;;;;;;6279496;22;20008;-80
2022/06/07 12:14:04;;;;;;;6.63;5.45;;;;;;;;;;6279051;22;19996;-80
2022/06/07 12:16:39;;;;;;;7.90;4.65;;;;;;;;;;6279039;22;20008;-80
2022/06/07 12:19:26;;;;;;;6.40;3.10;;;;;;;;;;6255266;22;20039;-79
2022/06/07 12:21:55;;;;;;;35.45;21.42;;;;;;;;;;6282550;22;20008;-81
2022/06/07 12:24:21;;;;;;;12.80;8.70;;;;;;;;;;6280027;22;20004;-81
2022/06/07 12:26:48;;;;;;;9.43;6.05;;;;;;;;;;6254569;22;20400;-79
2022/06/07 12:29:19;;;;;;;5.18;4.40;;;;;;;;;;6225920;22;20434;-82
2022/06/07 12:31:48;;;;;;;7.75;5.25;;;;;;;;;;6283723;22;20461;-81
2022/06/07 12:34:22;;;;;;;5.70;4.82;;;;;;;;;;6225292;22;20003;-83
2022/06/07 12:36:57;;;;;;;5.03;4.10;;;;;;;;;;6251721;22;20003;-81
2022/06/07 12:39:23;;;;;;;11.52;7.80;;;;;;;;;;6275603;22;20094;-83
2022/06/07 12:41:52;;;;;;;10.80;7.93;;;;;;;;;;6231643;22;20008;-81
2022/06/07 12:44:51;;;;;;;6.57;4.75;;;;;;;;;;6281678;22;20003;-84
2022/06/07 12:47:33;;;;;;;10.65;6.47;;;;;;;;;;6249353;22;20022;-83
2022/06/07 12:49:59;;;;;;;7.47;6.45;;;;;;;;;;6274174;22;20090;-85
2022/06/07 12:52:29;;;;;;;13.50;7.90;;;;;;;;;;6223442;22;20003;-85
2022/06/07 12:55:09;;;;;;;6.53;4.90;;;;;;;;;;6247470;22;20011;-83
2022/06/07 12:57:49;;;;;;;12.32;8.90;;;;;;;;;;6272066;22;20000;-83
2022/06/07 13:00:21;;;;;;;5.20;4.68;;;;;;;;;;6268465;22;20099;-84
2022/06/07 13:02:58;;;;;;;7.57;3.83;;;;;;;;;;6224348;22;20477;-84
2022/06/07 13:05:28;;;;;;;11.45;6.38;;;;;;;;;;6226771;22;20027;-83
2022/06/07 13:07:55;;;;;;;3.70;3.17;;;;;;;;;;6249224;22;20022;-83
2022/06/07 13:10:22;;;;;;;5.10;4.05;;;;;;;;;;6223214;22;20004;-85
2022/06/07 13:12:49;;;;;;;5.72;4.03;;;;;;;;;;6247619;22;20061;-82
2022/06/07 13:15:17;;;;;;;8.13;6.60;;;;;;;;;;6249275;22;20097;-82
2022/06/07 13:18:12;;;;;;;10.18;7.45;;;;;;;;;;6223060;22;20010;-84
2022/06/07 13:20:46;;;;;;;6.18;5.53;;;;;;;;;;6229170;22;20004;-85
2022/06/07 13:23:28;;;;;;;9.40;6.22;;;;;;;;;;6225030;22;20319;-83
2022/06/07 13:26:11;;;;;;;7.35;5.05;;;;;;;;;;6249148;22;20073;-85
2022/06/07 13:28:37;;;;;;;22.52;13.52;;;;;;;;;;6275855;22;20450;-82
2022/06/07 13:31:06;;;;;;;8.90;6.40;;;;;;;;;;6248453;22;19996;-84
2022/06/07 13:33:35;;;;;;;7.10;4.85;;;;;;;;;;6248616;22;20438;-84
2022/06/07 13:36:06;;;;;;;11.88;5.95;;;;;;;;;;6274845;22;20000;-83
2022/06/07 13:38:34;;;;;;;12.32;8.95;;;;;;;;;;6222977;22;20004;-80
2022/06/07 13:41:18;;;;;;;14.10;10.25;;;;;;;;;;6275325;22;20004;-81
2022/06/07 13:43:56;;;;;;;10.45;7.55;;;;;;;;;;6274872;22;20004;-81
2022/06/07 13:46:32;;;;;;;6.05;4.45;;;;;;;;;;6274933;22;20000;-82
2022/06/07 13:55:24;;;;;;;16.17;8.52;;;;;;;;;;6252461;22;20034;-83
2022/06/07 13:57:50;;;;;;;9.13;6.32;;;;;;;;;;6247955;22;20419;-84
2022/06/07 14:00:16;;;;;;;7.55;5.00;;;;;;;;;;6248315;22;20030;-86
2022/06/07 14:02:43;;;;;;;9.10;5.28;;;;;;;;;;6250057;22;20348;-83
2022/06/07 14:05:15;;;;;;;8.50;5.25;;;;;;;;;;6222729;22;20008;-83
2022/06/07 14:07:40;;;;;;;5.00;4.50;;;;;;;;;;6222262;22;20003;-84
2022/06/07 14:10:06;;;;;;;7.90;5.70;;;;;;;;;;6248332;22;20026;-85
2022/06/07 14:12:32;;;;;;;3.33;3.05;;;;;;;;;;6276155;22;20046;-86
2022/06/07 14:14:57;;;;;;;5.22;4.07;;;;;;;;;;6275571;22;20504;-84
2022/06/07 14:17:24;;;;;;;6.35;4.68;;;;;;;;;;6222496;22;20732;-83
2022/06/07 14:19:53;;;;;;;4.95;4.05;;;;;;;;;;6223142;22;20061;-84
2022/06/07 14:22:25;;;;;;;5.35;3.72;;;;;;;;;;6249583;22;20004;-83
2022/06/07 14:24:51;;;;;;;5.28;3.92;;;;;;;;;;6223866;22;20011;-84
2022/06/07 14:27:19;;;;;;;8.00;4.07;;;;;;;;;;6222836;22;20512;-84
2022/06/07 14:29:45;;;;;;;8.50;5.95;;;;;;;;;;6198813;22;20008;-83
2022/06/07 14:32:15;;;;;;;7.20;5.85;;;;;;;;;;6222191;22;20006;-84
2022/06/07 14:34:41;;;;;;;4.32;3.90;;;;;;;;;;6247463;22;20004;-81
2022/06/07 14:37:11;;;;;;;4.75;4.03;;;;;;;;;;6247746;22;20004;-82
2022/06/07 14:39:37;;;;;;;4.10;3.72;;;;;;;;;;6247952;22;20004;-83
2022/06/07 14:42:03;;;;;;;6.50;4.65;;;;;;;;;;6200298;22;19999;-84
2022/06/07 14:44:28;;;;;;;5.60;3.28;;;;;;;;;;6248374;22;20411;-82
2022/06/07 14:46:56;;;;;;;3.30;3.00;;;;;;;;;;6223789;22;20035;-84
2022/06/07 14:49:42;;;;;;;6.13;2.90;;;;;;;;;;6223851;22;20469;-84
2022/06/07 14:52:11;;;;;;;3.72;3.03;;;;;;;;;;6251778;22;20006;-82
2022/06/07 14:54:37;;;;;;;6.07;3.03;;;;;;;;;;6248227;22;20034;-84
2022/06/07 14:57:05;;;;;;;3.50;3.20;;;;;;;;;;6222490;22;20338;-81
2022/06/07 14:59:30;;;;;;;3.72;3.42;;;;;;;;;;6222673;22;20056;-82
2022/06/07 15:02:01;;;;;;;6.63;3.50;;;;;;;;;;6223554;22;20090;-82
2022/06/07 15:04:36;;;;;;;5.70;3.28;;;;;;;;;;6222413;22;20003;-82
2022/06/07 15:07:01;;;;;;;4.88;3.10;;;;;;;;;;6199833;22;20057;-82
2022/06/07 15:09:29;;;;;;;4.40;3.30;;;;;;;;;;6275793;22;20015;-83
2022/06/07 15:11:55;;;;;;;3.83;3.30;;;;;;;;;;6222470;22;19996;-82
2022/06/07 15:14:20;;;;;;;3.85;3.50;;;;;;;;;;6275824;22;20003;-82
2022/06/07 15:16:50;;;;;;;5.95;2.92;;;;;;;;;;6251843;22;20007;-83
2022/06/07 15:19:34;;;;;;;3.88;3.03;;;;;;;;;;6207485;22;20012;-80
2022/06/07 15:22:01;;;;;;;4.78;3.42;;;;;;;;;;6215372;22;19992;-81
2022/06/07 15:24:27;;;;;;;3.92;3.30;;;;;;;;;;6270122;22;20006;-83
2022/06/07 15:26:52;;;;;;;3.30;3.00;;;;;;;;;;6258918;22;20082;-84
2022/06/07 15:29:49;;;;;;;5.00;3.35;;;;;;;;;;6227250;22;19999;-83
2022/06/07 15:32:18;;;;;;;5.43;3.22;;;;;;;;;;6254214;22;20000;-83
2022/06/07 15:34:43;;;;;;;8.43;3.53;;;;;;;;;;6248811;22;20000;-82